createdAt,value
2019-03-15T00:01:41.789Z,6.60
2019-03-15T00:04:11.363Z,6.60
2019-03-15T00:06:40.598Z,6.60
2019-03-15T00:09:10.080Z,6.50
2019-03-15T00:11:39.547Z,6.50
2019-03-15T00:14:08.906Z,6.40
2019-03-15T00:16:38.284Z,6.40
2019-03-15T00:19:07.607Z,6.30
2019-03-15T00:21:36.886Z,6.30
2019-03-15T00:24:06.289Z,6.30
2019-03-15T00:26:35.497Z,6.30
2019-03-15T00:29:04.890Z,6.40
2019-03-15T00:31:37.547Z,6.40
2019-03-15T00:34:07.004Z,6.40
2019-03-15T00:36:36.383Z,6.50
2019-03-15T00:39:06.698Z,6.40
2019-03-15T00:41:36.006Z,6.30
2019-03-15T00:44:05.421Z,6.30
2019-03-15T00:46:34.794Z,6.20
2019-03-15T00:49:04.151Z,6.20
2019-03-15T00:51:33.589Z,6.20
2019-03-15T00:54:02.959Z,6.20
2019-03-15T00:56:32.342Z,6.10
2019-03-15T00:59:01.674Z,6.10
2019-03-15T01:01:31.078Z,6.10
2019-03-15T01:04:00.425Z,6.10
2019-03-15T01:06:29.786Z,6.00
2019-03-15T01:08:59.142Z,6.00
2019-03-15T01:11:28.533Z,6.00
2019-03-15T01:13:57.845Z,6.00
2019-03-15T01:16:27.217Z,6.00
2019-03-15T01:18:56.423Z,6.10
2019-03-15T01:21:25.821Z,6.10
2019-03-15T01:23:55.191Z,6.10
2019-03-15T01:26:27.642Z,6.10
2019-03-15T01:28:57.056Z,6.10
2019-03-15T01:31:26.426Z,6.00
2019-03-15T01:33:55.827Z,6.00
2019-03-15T01:36:25.170Z,6.00
2019-03-15T01:38:54.624Z,6.10
2019-03-15T01:41:23.978Z,6.00
2019-03-15T01:43:53.338Z,6.00
2019-03-15T01:46:22.612Z,6.00
2019-03-15T01:48:51.998Z,6.00
2019-03-15T01:51:21.382Z,6.00
2019-03-15T01:53:50.718Z,6.00
2019-03-15T01:56:20.115Z,6.00
2019-03-15T01:58:51.883Z,6.10
2019-03-15T02:01:21.210Z,6.10
2019-03-15T02:03:50.582Z,6.10
2019-03-15T02:06:19.843Z,6.10
2019-03-15T02:08:49.198Z,6.10
2019-03-15T02:11:18.573Z,6.10
2019-03-15T02:13:47.834Z,6.10
2019-03-15T02:16:17.238Z,6.20
2019-03-15T02:18:46.653Z,6.20
2019-03-15T02:21:15.951Z,6.30
2019-03-15T02:23:45.365Z,6.30
2019-03-15T02:26:14.729Z,6.30
2019-03-15T02:28:44.135Z,6.30
2019-03-15T02:31:13.494Z,6.20
2019-03-15T02:33:42.863Z,6.20
2019-03-15T02:36:13.422Z,6.20
2019-03-15T02:38:43.390Z,6.20
2019-03-15T02:41:18.441Z,6.20
2019-03-15T02:43:48.240Z,6.10
2019-03-15T02:46:17.584Z,6.20
2019-03-15T02:48:46.880Z,6.30
2019-03-15T02:51:16.180Z,6.30
2019-03-15T02:53:45.657Z,6.20
2019-03-15T02:56:15.141Z,6.20
2019-03-15T02:58:44.681Z,6.20
2019-03-15T03:01:14.131Z,6.20
2019-03-15T03:03:43.485Z,6.30
2019-03-15T03:06:12.812Z,6.30
2019-03-15T03:08:42.103Z,6.30
2019-03-15T03:11:11.437Z,6.30
2019-03-15T03:13:40.939Z,6.30
2019-03-15T03:16:10.312Z,6.30
2019-03-15T03:18:39.689Z,6.30
2019-03-15T03:21:09.052Z,6.30
2019-03-15T03:23:38.386Z,6.40
2019-03-15T03:26:07.811Z,6.40
2019-03-15T03:28:37.249Z,6.40
2019-03-15T03:31:06.609Z,6.40
2019-03-15T03:33:36.017Z,6.40
2019-03-15T03:36:05.401Z,6.50
2019-03-15T03:38:34.781Z,6.50
2019-03-15T03:41:04.240Z,6.50
2019-03-15T03:43:33.576Z,6.50
2019-03-15T03:46:02.944Z,6.50
2019-03-15T03:48:32.290Z,6.50
2019-03-15T03:51:01.616Z,6.50
2019-03-15T03:53:31.033Z,6.50
2019-03-15T03:56:00.715Z,6.50
2019-03-15T03:58:30.076Z,6.50
2019-03-15T04:00:59.330Z,6.50
2019-03-15T04:03:28.833Z,6.40
2019-03-15T04:05:58.175Z,6.50
2019-03-15T04:08:27.448Z,6.40
2019-03-15T04:10:56.813Z,6.40
2019-03-15T04:13:26.175Z,6.40
2019-03-15T04:15:55.555Z,6.40
2019-03-15T04:18:24.963Z,6.30
2019-03-15T04:20:54.263Z,6.30
2019-03-15T04:23:23.479Z,6.30
2019-03-15T04:25:52.831Z,6.30
2019-03-15T04:28:22.157Z,6.30
2019-03-15T04:30:51.464Z,6.20
2019-03-15T04:33:20.824Z,6.20
2019-03-15T04:35:50.044Z,6.20
2019-03-15T04:38:19.407Z,6.20
2019-03-15T04:40:48.823Z,6.20
2019-03-15T04:43:18.247Z,6.20
2019-03-15T04:45:47.625Z,6.20
2019-03-15T04:48:16.948Z,6.30
2019-03-15T04:50:46.247Z,6.20
2019-03-15T04:53:15.592Z,6.20
2019-03-15T04:55:44.906Z,6.20
2019-03-15T04:58:14.249Z,6.20
2019-03-15T05:00:43.524Z,6.20
2019-03-15T05:03:12.744Z,6.30
2019-03-15T05:05:42.200Z,6.30
2019-03-15T05:08:11.488Z,6.30
2019-03-15T05:10:40.780Z,6.30
2019-03-15T05:13:10.131Z,6.30
2019-03-15T05:15:39.318Z,6.30
2019-03-15T05:18:08.677Z,6.30
2019-03-15T05:20:38.055Z,6.30
2019-03-15T05:23:07.286Z,6.30
2019-03-15T05:25:36.660Z,6.30
2019-03-15T05:28:05.986Z,6.30
2019-03-15T05:30:35.679Z,6.30
2019-03-15T05:33:05.187Z,6.30
2019-03-15T05:35:35.679Z,6.40
2019-03-15T05:38:05.067Z,6.30
2019-03-15T05:40:34.452Z,6.30
2019-03-15T05:43:03.765Z,6.30
2019-03-15T05:45:33.119Z,6.30
2019-03-15T05:48:02.390Z,6.30
2019-03-15T05:50:31.820Z,6.30
2019-03-15T05:53:01.101Z,6.30
2019-03-15T05:55:30.386Z,6.30
2019-03-15T05:57:59.765Z,6.30
2019-03-15T06:00:29.148Z,6.30
2019-03-15T06:02:58.397Z,6.30
2019-03-15T06:05:27.793Z,6.30
2019-03-15T06:07:57.106Z,6.30
2019-03-15T06:10:26.462Z,6.40
2019-03-15T06:12:55.834Z,6.40
2019-03-15T06:15:25.162Z,6.40
2019-03-15T06:17:54.456Z,6.40
2019-03-15T06:20:23.819Z,6.50
2019-03-15T06:22:53.081Z,6.50
2019-03-15T06:25:22.578Z,6.50
2019-03-15T06:27:52.017Z,6.50
2019-03-15T06:30:21.399Z,6.50
2019-03-15T06:32:50.805Z,6.50
2019-03-15T06:35:20.051Z,6.50
2019-03-15T06:37:50.470Z,6.50
2019-03-15T06:40:19.833Z,6.50
2019-03-15T06:42:49.038Z,6.50
2019-03-15T06:45:18.499Z,6.50
2019-03-15T06:47:47.926Z,6.50
2019-03-15T06:50:17.549Z,6.60
2019-03-15T06:52:46.990Z,6.50
2019-03-15T06:55:16.329Z,6.60
2019-03-15T06:57:45.766Z,6.60
2019-03-15T07:00:31.161Z,6.60
2019-03-15T07:03:00.466Z,6.60
2019-03-15T07:05:29.866Z,6.60
2019-03-15T07:07:59.109Z,6.60
2019-03-15T07:10:28.526Z,6.60
2019-03-15T07:12:57.879Z,6.60
2019-03-15T07:15:27.313Z,6.60
2019-03-15T07:17:56.670Z,6.60
2019-03-15T07:20:25.953Z,6.60
2019-03-15T07:22:55.258Z,6.60
2019-03-15T07:25:24.609Z,6.60
2019-03-15T07:27:53.992Z,6.70
2019-03-15T07:30:23.244Z,6.70
2019-03-15T07:32:52.610Z,6.70
2019-03-15T07:35:21.950Z,6.70
2019-03-15T07:37:51.348Z,6.80
2019-03-15T07:40:20.627Z,6.80
2019-03-15T07:42:49.878Z,6.80
2019-03-15T07:45:19.269Z,6.90
2019-03-15T07:47:48.645Z,6.90
2019-03-15T07:50:17.881Z,6.90
2019-03-15T07:52:47.259Z,6.90
2019-03-15T07:55:16.609Z,7.00
2019-03-15T07:57:45.922Z,7.00
2019-03-15T08:00:15.414Z,7.00
2019-03-15T08:02:44.800Z,7.00
2019-03-15T08:05:14.242Z,7.00
2019-03-15T08:07:45.661Z,7.00
2019-03-15T08:10:14.682Z,7.00
2019-03-15T08:12:43.938Z,7.00
2019-03-15T08:15:13.405Z,7.00
2019-03-15T08:17:42.848Z,7.00
2019-03-15T08:20:12.493Z,7.00
2019-03-15T08:22:41.924Z,7.00
2019-03-15T08:25:11.655Z,7.00
2019-03-15T08:27:43.805Z,7.00
2019-03-15T08:30:13.498Z,7.00
2019-03-15T08:32:43.849Z,7.00
2019-03-15T08:35:13.653Z,6.90
2019-03-15T08:37:42.936Z,7.00
2019-03-15T08:40:12.499Z,7.00
2019-03-15T08:42:41.891Z,7.00
2019-03-15T08:45:12.947Z,7.00
2019-03-15T08:47:42.528Z,7.00
2019-03-15T08:50:14.984Z,7.10
2019-03-15T08:52:44.153Z,7.10
2019-03-15T08:55:14.094Z,7.10
2019-03-15T08:57:43.373Z,7.10
2019-03-15T09:00:13.055Z,7.20
2019-03-15T09:02:42.472Z,7.20
2019-03-15T09:05:11.899Z,7.20
2019-03-15T09:07:41.263Z,7.20
2019-03-15T09:10:22.037Z,7.20
2019-03-15T09:12:41.918Z,7.20
2019-03-15T09:15:11.415Z,7.20
2019-03-15T09:17:40.667Z,7.10
2019-03-15T09:20:10.065Z,7.10
2019-03-15T09:22:39.322Z,7.10
2019-03-15T09:25:18.574Z,7.20
2019-03-15T09:27:39.817Z,7.10
2019-03-15T09:30:22.531Z,7.20
2019-03-15T09:32:40.958Z,7.10
2019-03-15T09:35:10.500Z,7.20
2019-03-15T09:37:39.866Z,7.20
2019-03-15T09:40:10.332Z,7.30
2019-03-15T09:42:39.734Z,7.30
2019-03-15T09:45:10.277Z,7.30
2019-03-15T09:47:39.670Z,7.40
2019-03-15T09:50:21.065Z,7.40
2019-03-15T09:52:41.547Z,7.40
2019-03-15T09:55:10.937Z,7.40
2019-03-15T09:57:40.209Z,7.30
2019-03-15T10:00:13.038Z,7.30
2019-03-15T10:02:42.402Z,7.40
2019-03-15T10:05:11.863Z,7.30
2019-03-15T10:07:43.403Z,7.30
2019-03-15T10:10:14.129Z,7.30
2019-03-15T10:12:43.448Z,7.30
2019-03-15T10:15:13.003Z,7.30
2019-03-15T10:17:42.338Z,7.30
2019-03-15T10:20:12.729Z,7.30
2019-03-15T10:22:42.254Z,7.30
2019-03-15T10:25:11.699Z,7.30
2019-03-15T10:27:41.060Z,7.40
2019-03-15T10:30:12.203Z,7.40
2019-03-15T10:32:41.549Z,7.40
2019-03-15T10:35:10.927Z,7.50
2019-03-15T10:37:40.191Z,7.50
2019-03-15T10:40:12.184Z,7.60
2019-03-15T10:42:41.611Z,7.60
2019-03-15T10:45:11.004Z,7.70
2019-03-15T10:47:42.430Z,7.80
2019-03-15T10:50:12.013Z,7.90
2019-03-15T10:52:41.244Z,8.00
2019-03-15T10:55:10.815Z,8.00
2019-03-15T10:57:40.024Z,8.10
2019-03-15T11:00:11.224Z,8.10
2019-03-15T11:02:40.571Z,8.20
2019-03-15T11:05:10.377Z,8.20
2019-03-15T11:07:39.737Z,8.20
2019-03-15T11:10:09.600Z,8.20
2019-03-15T11:12:38.804Z,8.30
2019-03-15T11:15:08.639Z,8.30
2019-03-15T11:17:37.904Z,8.40
2019-03-15T11:20:07.641Z,8.50
2019-03-15T11:22:39.054Z,8.50
2019-03-15T11:25:08.841Z,8.60
2019-03-15T11:27:38.292Z,8.60
2019-03-15T11:30:08.764Z,8.70
2019-03-15T11:32:37.984Z,8.80
2019-03-15T11:35:08.295Z,8.80
2019-03-15T11:37:37.517Z,8.90
2019-03-15T11:40:07.456Z,8.90
2019-03-15T11:42:36.833Z,9.00
2019-03-15T11:45:07.173Z,9.10
2019-03-15T11:47:56.404Z,9.20
2019-03-15T11:50:08.235Z,9.30
2019-03-15T11:52:37.624Z,9.40
2019-03-15T11:55:08.141Z,9.50
2019-03-15T11:57:37.607Z,9.50
2019-03-15T12:00:07.766Z,9.60
2019-03-15T12:02:37.177Z,9.80
2019-03-15T12:05:06.973Z,9.80
2019-03-15T12:07:36.331Z,9.90
2019-03-15T12:10:06.155Z,10.00
2019-03-15T12:12:35.500Z,10.10
2019-03-15T12:15:05.373Z,10.20
2019-03-15T12:17:34.789Z,10.30
2019-03-15T12:20:04.342Z,10.40
2019-03-15T12:22:33.881Z,10.50
2019-03-15T12:25:03.232Z,10.60
2019-03-15T12:27:32.639Z,10.70
2019-03-15T12:30:01.944Z,10.90
2019-03-15T12:32:31.300Z,11.00
2019-03-15T12:35:00.683Z,11.10
2019-03-15T12:37:29.897Z,11.20
2019-03-15T12:39:59.185Z,11.30
2019-03-15T12:42:28.628Z,11.40
2019-03-15T12:44:57.968Z,11.50
2019-03-15T12:47:27.379Z,11.50
2019-03-15T12:49:56.950Z,11.60
2019-03-15T12:52:26.594Z,11.60
2019-03-15T12:54:55.977Z,11.70
2019-03-15T12:57:25.261Z,11.80
2019-03-15T12:59:54.709Z,11.80
2019-03-15T13:02:24.148Z,11.80
2019-03-15T13:04:53.444Z,11.80
2019-03-15T13:07:22.828Z,11.80
2019-03-15T13:09:52.281Z,11.70
2019-03-15T13:12:21.492Z,11.70
2019-03-15T13:14:50.962Z,11.80
2019-03-15T13:17:20.311Z,11.80
2019-03-15T13:19:55.180Z,11.70
2019-03-15T13:22:20.686Z,11.70
2019-03-15T13:24:50.123Z,11.70
2019-03-15T13:27:19.533Z,11.60
2019-03-15T13:29:49.015Z,11.50
2019-03-15T13:32:18.458Z,11.40
2019-03-15T13:34:47.884Z,11.30
2019-03-15T13:37:17.219Z,11.30
2019-03-15T13:39:46.517Z,11.30
2019-03-15T13:42:15.902Z,11.20
2019-03-15T13:44:45.314Z,11.20
2019-03-15T13:47:14.708Z,11.20
2019-03-15T13:49:44.159Z,11.20
2019-03-15T13:52:13.422Z,11.10
2019-03-15T13:54:42.711Z,11.10
2019-03-15T13:57:21.277Z,11.00
2019-03-15T13:59:42.927Z,11.00
2019-03-15T14:02:12.311Z,11.00
2019-03-15T14:04:41.669Z,11.00
2019-03-15T14:07:11.060Z,11.00
2019-03-15T14:09:40.447Z,11.00
2019-03-15T14:12:09.709Z,11.00
2019-03-15T14:14:39.078Z,11.00
2019-03-15T14:17:08.450Z,11.00
2019-03-15T14:19:37.840Z,11.00
2019-03-15T14:22:07.327Z,10.90
2019-03-15T14:24:36.741Z,10.90
2019-03-15T14:27:06.123Z,10.80
2019-03-15T14:29:35.519Z,10.80
2019-03-15T14:32:06.819Z,10.80
2019-03-15T14:34:35.901Z,10.80
2019-03-15T14:37:05.680Z,10.70
2019-03-15T14:39:35.065Z,10.40
2019-03-15T14:42:04.806Z,10.20
2019-03-15T14:44:34.121Z,10.00
2019-03-15T14:47:03.544Z,9.90
2019-03-15T14:49:33.009Z,9.90
2019-03-15T14:52:02.388Z,9.80
2019-03-15T14:54:31.808Z,9.80
2019-03-15T14:57:01.182Z,9.80
2019-03-15T14:59:30.522Z,9.80
2019-03-15T15:02:00.002Z,9.80
2019-03-15T15:04:29.449Z,9.80
2019-03-15T15:06:58.770Z,9.80
2019-03-15T15:09:28.230Z,9.80
2019-03-15T15:11:57.550Z,9.80
2019-03-15T15:14:27.005Z,9.80
2019-03-15T15:16:56.479Z,9.80
2019-03-15T15:19:26.154Z,9.80
2019-03-15T15:21:55.522Z,9.80
2019-03-15T15:24:24.821Z,9.70
2019-03-15T15:26:54.410Z,9.60
2019-03-15T15:29:23.790Z,9.60
2019-03-15T15:31:53.034Z,9.50
2019-03-15T15:34:22.651Z,9.50
2019-03-15T15:36:51.986Z,9.50
2019-03-15T15:39:21.892Z,9.40
2019-03-15T15:41:51.317Z,9.40
2019-03-15T15:44:20.806Z,9.40
2019-03-15T15:46:50.126Z,9.40
2019-03-15T15:49:19.565Z,9.40
2019-03-15T15:51:49.174Z,9.40
2019-03-15T15:54:18.585Z,9.40
2019-03-15T15:56:51.199Z,9.40
2019-03-15T15:59:20.667Z,9.40
2019-03-15T16:01:50.132Z,9.40
2019-03-15T16:04:19.522Z,9.40
2019-03-15T16:06:49.139Z,9.40
2019-03-15T16:09:18.630Z,9.40
2019-03-15T16:11:48.166Z,9.50
2019-03-15T16:14:17.634Z,9.50
2019-03-15T16:16:47.113Z,9.50
2019-03-15T16:19:16.458Z,9.50
2019-03-15T16:21:45.988Z,9.50
2019-03-15T16:24:15.449Z,9.50
2019-03-15T16:26:44.850Z,9.60
2019-03-15T16:29:14.235Z,9.60
2019-03-15T16:31:43.634Z,9.60
2019-03-15T16:34:13.006Z,9.60
2019-03-15T16:36:42.462Z,9.60
2019-03-15T16:39:11.904Z,9.70
2019-03-15T16:41:41.271Z,9.60
2019-03-15T16:44:10.761Z,9.60
2019-03-15T16:46:40.170Z,9.70
2019-03-15T16:49:09.522Z,9.60
2019-03-15T16:51:39.031Z,9.70
2019-03-15T16:54:08.461Z,9.70
2019-03-15T16:56:38.482Z,9.60
2019-03-15T16:59:08.334Z,9.60
2019-03-15T17:01:37.637Z,9.60
2019-03-15T17:04:06.960Z,9.60
2019-03-15T17:06:36.300Z,9.60
2019-03-15T17:09:06.904Z,9.50
2019-03-15T17:11:36.362Z,9.50
2019-03-15T17:14:05.782Z,9.50
2019-03-15T17:16:35.153Z,9.50
2019-03-15T17:19:04.719Z,9.50
2019-03-15T17:21:34.172Z,9.50
2019-03-15T17:24:03.626Z,9.50
2019-03-15T17:26:33.127Z,9.40
2019-03-15T17:29:02.405Z,9.40
2019-03-15T17:31:31.945Z,9.30
2019-03-15T17:34:01.664Z,9.30
2019-03-15T17:36:31.317Z,9.30
2019-03-15T17:39:00.654Z,9.30
2019-03-15T17:41:30.050Z,9.30
2019-03-15T17:43:59.863Z,9.30
2019-03-15T17:46:29.637Z,9.30
2019-03-15T17:48:58.908Z,9.20
2019-03-15T17:51:28.498Z,9.10
2019-03-15T17:53:57.834Z,9.10
2019-03-15T17:56:27.271Z,9.10
2019-03-15T17:58:56.722Z,9.10
2019-03-15T18:01:26.391Z,9.10
2019-03-15T18:03:56.251Z,9.10
2019-03-15T18:06:26.352Z,9.00
2019-03-15T18:08:55.734Z,9.00
2019-03-15T18:11:25.148Z,8.90
2019-03-15T18:13:54.600Z,8.80
2019-03-15T18:16:24.050Z,8.90
2019-03-15T18:18:53.594Z,8.80
2019-03-15T18:21:22.985Z,8.80
2019-03-15T18:23:52.361Z,8.80
2019-03-15T18:26:21.654Z,8.70
2019-03-15T18:28:50.978Z,8.70
2019-03-15T18:31:20.456Z,8.70
2019-03-15T18:33:49.876Z,8.70
2019-03-15T18:36:19.136Z,8.70
2019-03-15T18:38:48.485Z,8.70
2019-03-15T18:41:17.971Z,8.70
2019-03-15T18:43:47.699Z,8.60
2019-03-15T18:46:17.063Z,8.60
2019-03-15T18:48:46.363Z,8.50
2019-03-15T18:51:15.728Z,8.50
2019-03-15T18:53:45.179Z,8.50
2019-03-15T18:56:14.583Z,8.40
2019-03-15T18:58:43.983Z,8.40
2019-03-15T19:01:13.370Z,8.40
2019-03-15T19:03:42.622Z,8.40
2019-03-15T19:06:12.494Z,8.30
2019-03-15T19:08:41.887Z,8.40
2019-03-15T19:11:11.314Z,8.40
2019-03-15T19:13:42.027Z,8.30
2019-03-15T19:16:20.101Z,8.20
2019-03-15T19:18:42.567Z,8.20
2019-03-15T19:21:11.965Z,8.20
2019-03-15T19:23:41.273Z,8.20
2019-03-15T19:26:10.698Z,8.20
2019-03-15T19:28:40.071Z,8.20
2019-03-15T19:31:09.314Z,8.20
2019-03-15T19:33:38.677Z,8.10
2019-03-15T19:36:08.052Z,8.00
2019-03-15T19:38:37.369Z,8.00
2019-03-15T19:41:06.699Z,8.00
2019-03-15T19:43:36.026Z,8.00
2019-03-15T19:46:05.347Z,8.00
2019-03-15T19:48:36.690Z,8.00
2019-03-15T19:51:05.971Z,8.00
2019-03-15T19:53:35.349Z,7.90
2019-03-15T19:56:04.865Z,7.90
2019-03-15T19:58:34.218Z,8.00
2019-03-15T20:01:03.619Z,7.90
2019-03-15T20:03:43.674Z,7.90
2019-03-15T20:06:05.458Z,7.90
2019-03-15T20:08:34.911Z,7.90
2019-03-15T20:11:04.260Z,7.80
2019-03-15T20:13:33.724Z,7.80
2019-03-15T20:16:03.067Z,7.70
2019-03-15T20:18:32.475Z,7.80
2019-03-15T20:21:01.919Z,7.70
2019-03-15T20:23:31.417Z,7.70
2019-03-15T20:26:00.806Z,7.70
2019-03-15T20:28:30.202Z,7.70
2019-03-15T20:30:59.488Z,7.60
2019-03-15T20:33:28.891Z,7.70
2019-03-15T20:35:58.321Z,7.70
2019-03-15T20:38:27.822Z,7.60
2019-03-15T20:40:57.223Z,7.60
2019-03-15T20:43:26.534Z,7.60
2019-03-15T20:45:55.904Z,7.60
2019-03-15T20:48:25.266Z,7.70
2019-03-15T20:50:54.701Z,7.60
2019-03-15T20:53:24.206Z,7.60
2019-03-15T20:55:53.584Z,7.50
2019-03-15T20:58:23.133Z,7.50
2019-03-15T21:00:52.536Z,7.50
2019-03-15T21:03:21.824Z,7.40
2019-03-15T21:05:51.176Z,7.30
2019-03-15T21:08:20.519Z,7.30
2019-03-15T21:10:51.559Z,7.40
2019-03-15T21:13:20.864Z,7.40
2019-03-15T21:15:50.286Z,7.30
2019-03-15T21:18:19.597Z,7.30
2019-03-15T21:20:52.008Z,7.20
2019-03-15T21:23:21.303Z,7.20
2019-03-15T21:25:50.617Z,7.30
2019-03-15T21:28:20.054Z,7.20
2019-03-15T21:30:49.342Z,7.10
2019-03-15T21:33:18.904Z,7.10
2019-03-15T21:35:48.263Z,7.10
2019-03-15T21:38:17.644Z,7.10
2019-03-15T21:40:46.951Z,7.00
2019-03-15T21:43:16.220Z,7.00
2019-03-15T21:45:45.542Z,7.00
2019-03-15T21:48:14.923Z,7.00
2019-03-15T21:50:44.230Z,7.00
2019-03-15T21:53:13.589Z,7.00
2019-03-15T21:55:42.951Z,6.90
2019-03-15T21:58:12.220Z,6.90
2019-03-15T22:00:41.555Z,6.80
2019-03-15T22:03:10.919Z,6.80
2019-03-15T22:05:40.278Z,6.80
2019-03-15T22:08:09.654Z,6.80
2019-03-15T22:10:38.996Z,6.90
2019-03-15T22:13:08.588Z,6.90
2019-03-15T22:15:38.010Z,6.90
2019-03-15T22:18:07.299Z,6.90
2019-03-15T22:20:36.692Z,6.80
2019-03-15T22:23:06.129Z,6.80
2019-03-15T22:25:35.508Z,6.80
2019-03-15T22:28:04.865Z,6.80
2019-03-15T22:30:34.311Z,6.80
2019-03-15T22:33:03.706Z,6.70
2019-03-15T22:35:35.822Z,6.70
2019-03-15T22:38:05.189Z,6.80
2019-03-15T22:40:34.784Z,6.80
2019-03-15T22:43:04.200Z,6.80
2019-03-15T22:45:33.608Z,6.80
2019-03-15T22:48:03.045Z,6.80
2019-03-15T22:50:32.319Z,6.90
2019-03-15T22:53:01.673Z,6.90
2019-03-15T22:55:31.056Z,6.80
2019-03-15T22:58:00.440Z,6.90
2019-03-15T23:00:34.801Z,6.90
2019-03-15T23:03:04.252Z,7.00
2019-03-15T23:05:33.800Z,6.90
2019-03-15T23:08:03.533Z,6.90
2019-03-15T23:10:32.909Z,7.00
2019-03-15T23:13:02.349Z,7.00
2019-03-15T23:15:31.861Z,7.00
2019-03-15T23:18:01.116Z,7.00
2019-03-15T23:20:30.405Z,7.10
2019-03-15T23:22:59.748Z,7.10
2019-03-15T23:25:29.026Z,7.10
2019-03-15T23:27:58.522Z,7.10
2019-03-15T23:30:27.875Z,7.10
2019-03-15T23:32:57.277Z,7.10
2019-03-15T23:35:26.760Z,7.10
2019-03-15T23:37:56.020Z,7.10
2019-03-15T23:40:28.312Z,7.10
2019-03-15T23:42:59.711Z,7.10
2019-03-15T23:45:29.106Z,7.10
2019-03-15T23:47:58.560Z,7.10
2019-03-15T23:50:27.915Z,7.20
2019-03-15T23:52:57.451Z,7.20
2019-03-15T23:55:47.371Z,7.20
2019-03-15T23:58:16.915Z,7.20
